Time;durP1;ratioP1;P1;durP2;ratioP2;P2;SDS_P1;SDS_P2;PMS_P1;PMS_P2;Temp;Humidity;BMP_temperature;BMP_pressure;BME280_temperature;BME280_humidity;BME280_pressure;Samples;Min_cycle;Max_cycle;Signal;HPM_P1;HPM_P2
2022/10/14 00:01:00;;;;;;;2.70;2.50;;;16.80;64.70;;;;;;5052418;28;20163;-65
2022/10/14 00:03:26;;;;;;;3.00;2.72;;;16.80;64.80;;;;;;5052736;28;20168;-65
2022/10/14 00:05:51;;;;;;;2.72;2.53;;;16.80;65.50;;;;;;5052267;28;20186;-64
2022/10/14 00:08:17;;;;;;;3.22;2.92;;;16.80;64.80;;;;;;5052503;28;20201;-65
2022/10/14 00:10:42;;;;;;;3.00;2.80;;;16.80;64.90;;;;;;5052386;28;20248;-64
2022/10/14 00:13:08;;;;;;;2.92;2.72;;;16.80;64.90;;;;;;5067754;28;20235;-65
2022/10/14 00:15:38;;;;;;;3.28;3.08;;;16.80;64.80;;;;;;5072562;28;20655;-64
2022/10/14 00:18:04;;;;;;;3.53;3.22;;;16.80;64.80;;;;;;5072451;28;20166;-64
2022/10/14 00:20:29;;;;;;;2.78;2.55;;;16.80;64.90;;;;;;5071903;28;20641;-64
2022/10/14 00:22:55;;;;;;;3.25;2.95;;;16.80;64.90;;;;;;5072458;28;20170;-64
2022/10/14 00:25:20;;;;;;;3.17;2.88;;;16.80;64.90;;;;;;5072392;28;20174;-65
2022/10/14 00:27:46;;;;;;;3.47;3.10;;;16.70;64.80;;;;;;5071593;28;20171;-64
2022/10/14 00:30:11;;;;;;;2.90;2.70;;;16.80;65.00;;;;;;5072099;28;20206;-64
2022/10/14 00:32:37;;;;;;;2.45;2.25;;;16.70;64.80;;;;;;5072530;28;20170;-63
2022/10/14 00:35:03;;;;;;;3.38;3.08;;;16.70;64.80;;;;;;5071326;28;20516;-63
2022/10/14 00:37:28;;;;;;;3.28;2.97;;;16.70;64.90;;;;;;5072445;28;20186;-64
2022/10/14 00:39:54;;;;;;;3.53;3.22;;;16.70;64.80;;;;;;5072593;28;20174;-64
2022/10/14 00:42:19;;;;;;;3.58;2.70;;;16.70;64.90;;;;;;5071447;28;20178;-64
2022/10/14 00:44:45;;;;;;;3.15;2.90;;;16.70;64.80;;;;;;5072444;28;20174;-65
2022/10/14 00:47:10;;;;;;;2.92;2.72;;;16.70;64.90;;;;;;5071937;28;20175;-65
2022/10/14 00:49:37;;;;;;;4.05;3.75;;;16.70;64.80;;;;;;5070434;28;20207;-64
2022/10/14 00:52:16;;;;;;;3.40;3.10;;;16.70;64.90;;;;;;5071831;28;20189;-64
2022/10/14 00:55:05;;;;;;;3.55;3.25;;;16.70;64.90;;;;;;5072467;28;20182;-64
2022/10/14 00:57:31;;;;;;;3.63;2.97;;;16.70;64.90;;;;;;5054541;28;20178;-64
2022/10/14 01:00:00;;;;;;;3.50;3.20;;;16.70;64.90;;;;;;5051936;28;20250;-64
2022/10/14 01:02:26;;;;;;;4.03;3.28;;;16.70;64.90;;;;;;5050151;28;20220;-64
2022/10/14 01:04:51;;;;;;;3.55;3.25;;;16.70;64.90;;;;;;5052019;28;20183;-64
2022/10/14 01:07:47;;;;;;;3.20;3.00;;;16.70;64.90;;;;;;5051907;28;20638;-64
2022/10/14 01:10:38;;;;;;;3.47;3.03;;;16.70;64.90;;;;;;5049506;28;20314;-64
2022/10/14 01:13:20;;;;;;;3.50;3.22;;;16.70;64.90;;;;;;5065921;28;20163;-64
2022/10/14 01:16:18;;;;;;;3.35;3.05;;;16.70;65.00;;;;;;5071260;28;20237;-64
2022/10/14 01:19:20;;;;;;;3.90;3.47;;;16.70;64.90;;;;;;5052606;28;20269;-65
2022/10/14 01:21:48;;;;;;;4.10;3.67;;;16.70;65.00;;;;;;5058479;28;20178;-64
2022/10/14 01:24:50;;;;;;;3.55;3.25;;;16.70;65.00;;;;;;5053339;28;20181;-65
2022/10/14 01:27:26;;;;;;;3.55;3.25;;;16.60;64.90;;;;;;5071763;28;20250;-63
2022/10/14 01:30:11;;;;;;;3.58;3.28;;;16.60;64.90;;;;;;5071849;28;20218;-63
2022/10/14 01:32:53;;;;;;;3.67;3.38;;;16.60;64.90;;;;;;5071819;28;20532;-63
2022/10/14 01:35:39;;;;;;;3.47;3.17;;;16.60;64.90;;;;;;5070723;28;20166;-63
2022/10/14 01:38:28;;;;;;;3.63;3.33;;;16.60;64.90;;;;;;5069962;28;20174;-63
2022/10/14 01:40:55;;;;;;;3.60;3.30;;;16.60;64.90;;;;;;5057184;28;20187;-65
2022/10/14 01:43:21;;;;;;;3.13;2.92;;;16.60;64.90;;;;;;5073947;28;20179;-64
2022/10/14 01:45:47;;;;;;;3.90;3.60;;;16.80;65.00;;;;;;5073778;28;20261;-64
2022/10/14 01:48:13;;;;;;;3.55;3.33;;;16.60;64.90;;;;;;5074029;28;20258;-64
2022/10/14 01:50:39;;;;;;;3.50;3.20;;;16.60;64.90;;;;;;5074364;28;20210;-64
2022/10/14 01:53:07;;;;;;;3.40;3.10;;;16.60;64.90;;;;;;5056417;28;20220;-65
2022/10/14 01:55:35;;;;;;;3.50;3.20;;;16.60;64.90;;;;;;5075192;28;20257;-64
2022/10/14 01:58:01;;;;;;;3.50;3.10;;;16.60;64.90;;;;;;5037474;28;20183;-64
2022/10/14 02:00:26;;;;;;;4.00;3.60;;;16.60;64.90;;;;;;5053205;28;20696;-64
2022/10/14 02:02:52;;;;;;;3.45;3.15;;;16.60;64.90;;;;;;5055044;28;20183;-64
2022/10/14 02:05:37;;;;;;;3.28;2.97;;;16.60;65.00;;;;;;5054046;28;20581;-65
2022/10/14 02:08:30;;;;;;;3.97;3.58;;;16.60;65.00;;;;;;5053509;28;20258;-64
2022/10/14 02:11:13;;;;;;;3.65;3.35;;;16.60;64.90;;;;;;5054541;28;20223;-64
2022/10/14 02:13:59;;;;;;;3.97;3.58;;;16.60;64.90;;;;;;5034481;28;20172;-64
2022/10/14 02:16:40;;;;;;;3.40;3.10;;;16.60;64.90;;;;;;5034527;28;20230;-64
2022/10/14 02:19:26;;;;;;;3.50;3.20;;;16.60;65.00;;;;;;5034542;28;20570;-64
2022/10/14 02:22:02;;;;;;;3.55;3.25;;;16.60;65.00;;;;;;5033919;28;20191;-64
2022/10/14 02:24:32;;;;;;;3.58;3.28;;;16.60;64.90;;;;;;5033556;28;20186;-64
2022/10/14 02:27:00;;;;;;;4.10;3.70;;;16.60;65.00;;;;;;5033710;28;20172;-64
2022/10/14 02:29:25;;;;;;;3.20;3.00;;;16.60;64.90;;;;;;5033408;28;20233;-64
2022/10/14 02:31:51;;;;;;;3.47;3.17;;;16.60;65.00;;;;;;5033237;28;20183;-63
2022/10/14 02:34:18;;;;;;;3.63;3.33;;;16.60;64.90;;;;;;5032263;28;20175;-64
2022/10/14 02:36:43;;;;;;;3.25;2.95;;;16.60;64.90;;;;;;5016229;28;20639;-64
2022/10/14 02:39:10;;;;;;;3.13;2.85;;;16.60;65.00;;;;;;5033987;28;20263;-64
2022/10/14 02:41:36;;;;;;;3.67;3.38;;;16.50;64.90;;;;;;5016125;28;20550;-64
2022/10/14 02:44:03;;;;;;;3.13;2.92;;;16.50;65.00;;;;;;5033060;28;20176;-65
2022/10/14 02:46:28;;;;;;;3.55;3.25;;;16.60;65.00;;;;;;5033173;28;20180;-64
2022/10/14 02:48:54;;;;;;;2.90;2.70;;;16.50;65.00;;;;;;5033719;28;20199;-64
2022/10/14 02:51:19;;;;;;;3.22;2.92;;;16.60;65.10;;;;;;5033365;28;20208;-64
2022/10/14 02:53:45;;;;;;;3.58;3.28;;;16.60;65.10;;;;;;5033923;28;20171;-64
2022/10/14 02:56:12;;;;;;;3.28;3.08;;;16.60;65.00;;;;;;5038611;28;20182;-65
2022/10/14 02:58:37;;;;;;;2.97;2.78;;;16.50;64.90;;;;;;5052946;28;20201;-64
2022/10/14 03:01:03;;;;;;;3.13;2.92;;;16.50;65.00;;;;;;5053671;28;20175;-65
2022/10/14 03:03:28;;;;;;;3.53;3.22;;;16.50;65.00;;;;;;5053323;28;20575;-64
2022/10/14 03:05:54;;;;;;;3.35;3.03;;;16.50;64.90;;;;;;5054068;28;20645;-64
2022/10/14 03:08:19;;;;;;;3.30;3.08;;;16.50;65.00;;;;;;5053520;28;20525;-64
2022/10/14 03:10:46;;;;;;;2.90;2.70;;;16.50;65.00;;;;;;5052820;28;20754;-64
2022/10/14 03:13:12;;;;;;;3.40;3.10;;;16.50;65.00;;;;;;5069976;28;20174;-64
2022/10/14 03:15:38;;;;;;;3.28;2.97;;;16.50;65.00;;;;;;5073076;28;20183;-64
2022/10/14 03:18:03;;;;;;;3.67;3.33;;;16.50;65.00;;;;;;5073572;28;20212;-64
2022/10/14 03:20:29;;;;;;;2.97;2.75;;;16.50;65.00;;;;;;5073764;28;20613;-64
2022/10/14 03:22:54;;;;;;;3.25;3.00;;;16.50;65.00;;;;;;5073024;28;20174;-64
2022/10/14 03:25:20;;;;;;;2.90;2.70;;;16.50;65.00;;;;;;5073390;28;20253;-65
2022/10/14 03:27:45;;;;;;;3.20;2.90;;;16.50;65.00;;;;;;5073586;28;20167;-65
2022/10/14 03:30:11;;;;;;;2.88;2.67;;;16.50;65.00;;;;;;5072636;28;20210;-64
2022/10/14 03:32:36;;;;;;;3.22;3.03;;;16.50;65.00;;;;;;5073588;28;20171;-63
2022/10/14 03:35:02;;;;;;;3.40;3.10;;;16.50;65.00;;;;;;5072998;28;20262;-64
2022/10/14 03:37:28;;;;;;;3.40;3.10;;;16.50;65.00;;;;;;5072731;28;20692;-64
2022/10/14 03:39:53;;;;;;;3.25;2.90;;;16.50;65.00;;;;;;5073261;28;20170;-64
2022/10/14 03:42:19;;;;;;;3.42;3.13;;;16.50;65.00;;;;;;5072841;28;20178;-65
2022/10/14 03:44:45;;;;;;;2.83;2.63;;;16.50;65.00;;;;;;5072367;28;20174;-65
2022/10/14 03:47:10;;;;;;;3.60;3.30;;;16.50;65.10;;;;;;5073172;28;20181;-65
2022/10/14 03:49:36;;;;;;;3.55;3.25;;;16.50;65.00;;;;;;5073202;28;20206;-65
2022/10/14 03:52:01;;;;;;;2.95;2.75;;;16.50;65.00;;;;;;5071968;28;20624;-64
2022/10/14 03:54:27;;;;;;;2.75;2.55;;;16.50;65.00;;;;;;5073137;28;20178;-65
2022/10/14 03:56:52;;;;;;;3.30;3.00;;;16.50;65.00;;;;;;5061980;28;20167;-64
2022/10/14 03:59:18;;;;;;;3.30;3.00;;;16.50;65.00;;;;;;5051911;28;20171;-65
2022/10/14 04:01:43;;;;;;;2.92;2.70;;;16.50;65.00;;;;;;5053075;28;20194;-64
2022/10/14 04:04:09;;;;;;;3.42;3.13;;;16.50;65.00;;;;;;5051507;28;20649;-64
2022/10/14 04:06:35;;;;;;;3.38;3.08;;;16.50;65.10;;;;;;5052322;28;20186;-64
2022/10/14 04:09:00;;;;;;;3.22;2.92;;;16.50;65.10;;;;;;5052390;28;20720;-64
2022/10/14 04:11:26;;;;;;;3.20;2.90;;;16.50;65.00;;;;;;5054585;28;20218;-64
2022/10/14 04:13:51;;;;;;;3.47;3.20;;;16.50;65.00;;;;;;5072109;28;20186;-64
2022/10/14 04:16:17;;;;;;;3.00;2.80;;;16.40;65.10;;;;;;5072562;28;20182;-64
2022/10/14 04:18:42;;;;;;;3.60;3.30;;;16.50;65.00;;;;;;5072799;28;20173;-65
2022/10/14 04:21:10;;;;;;;3.65;3.35;;;16.50;65.00;;;;;;5071781;28;20261;-64
2022/10/14 04:23:35;;;;;;;3.45;3.15;;;16.40;65.00;;;;;;5054738;28;20178;-64
2022/10/14 04:26:05;;;;;;;3.60;3.30;;;16.50;65.10;;;;;;5071645;28;20175;-64
2022/10/14 04:28:31;;;;;;;3.05;2.85;;;16.40;65.00;;;;;;5072465;28;20257;-64
2022/10/14 04:30:56;;;;;;;3.03;2.83;;;16.40;65.00;;;;;;5072335;28;20297;-64
2022/10/14 04:33:22;;;;;;;3.95;3.65;;;16.40;65.00;;;;;;5071661;28;20542;-64
2022/10/14 04:35:47;;;;;;;3.42;3.13;;;16.50;65.10;;;;;;5072426;28;20285;-64
2022/10/14 04:38:13;;;;;;;3.63;3.33;;;16.40;65.00;;;;;;5072235;28;20177;-64
2022/10/14 04:40:38;;;;;;;3.53;3.22;;;16.40;65.80;;;;;;5071695;28;20200;-64
2022/10/14 04:43:04;;;;;;;3.47;3.17;;;16.50;65.10;;;;;;5071983;28;20667;-64
2022/10/14 04:45:30;;;;;;;3.38;3.08;;;16.50;65.10;;;;;;5072347;28;20214;-64
2022/10/14 04:47:55;;;;;;;3.63;3.17;;;16.40;65.00;;;;;;5071940;28;20182;-65
2022/10/14 04:50:21;;;;;;;4.03;3.65;;;16.40;65.10;;;;;;5071811;28;20625;-64
2022/10/14 04:52:46;;;;;;;3.38;3.17;;;16.40;65.00;;;;;;5072248;28;20216;-65
2022/10/14 04:55:12;;;;;;;3.67;3.38;;;16.40;65.00;;;;;;5071210;28;20174;-64
2022/10/14 04:57:39;;;;;;;3.83;3.53;;;16.40;65.10;;;;;;5054881;28;20171;-65
2022/10/14 05:00:05;;;;;;;3.75;3.45;;;16.40;65.10;;;;;;5052208;28;20203;-64
2022/10/14 05:02:30;;;;;;;4.15;3.75;;;16.40;65.10;;;;;;5051215;28;20175;-64
2022/10/14 05:04:56;;;;;;;3.53;3.22;;;16.40;65.10;;;;;;5052304;28;20175;-65
2022/10/14 05:07:21;;;;;;;3.60;3.30;;;16.40;65.10;;;;;;5052691;28;20178;-64
2022/10/14 05:09:47;;;;;;;3.47;3.17;;;16.40;65.10;;;;;;5051291;28;20245;-64
2022/10/14 05:12:13;;;;;;;3.40;3.10;;;16.40;65.10;;;;;;5059771;28;20535;-63
2022/10/14 05:14:39;;;;;;;5.00;3.20;;;16.40;65.10;;;;;;5072984;28;20625;-63
2022/10/14 05:17:04;;;;;;;3.63;3.33;;;16.40;65.90;;;;;;5075214;28;20177;-63
2022/10/14 05:19:30;;;;;;;3.38;3.08;;;16.40;65.10;;;;;;5076224;28;20254;-63
2022/10/14 05:21:55;;;;;;;3.97;3.35;;;16.40;65.10;;;;;;5075977;28;20539;-63
2022/10/14 05:24:21;;;;;;;3.83;3.50;;;16.40;65.10;;;;;;5074881;28;20703;-63
2022/10/14 05:26:46;;;;;;;3.45;3.15;;;16.40;65.10;;;;;;5075987;28;20178;-63
2022/10/14 05:29:12;;;;;;;3.53;3.22;;;16.40;65.10;;;;;;5075113;28;20257;-63
2022/10/14 05:31:37;;;;;;;3.92;3.53;;;16.40;65.10;;;;;;5075723;28;20214;-64
2022/10/14 05:34:03;;;;;;;4.13;3.60;;;16.40;65.10;;;;;;5075379;28;20174;-63
2022/10/14 05:36:28;;;;;;;3.60;3.30;;;16.40;65.10;;;;;;5074914;28;20236;-63
2022/10/14 05:38:57;;;;;;;3.45;3.15;;;16.40;65.10;;;;;;5075953;28;20224;-66
2022/10/14 05:41:26;;;;;;;4.22;3.83;;;16.40;65.10;;;;;;5075334;28;20174;-64
2022/10/14 05:43:51;;;;;;;5.28;3.92;;;16.40;65.10;;;;;;5074892;28;20179;-64
2022/10/14 05:46:17;;;;;;;3.95;3.63;;;16.40;65.10;;;;;;5075442;28;20584;-63
2022/10/14 05:48:42;;;;;;;4.50;3.80;;;16.40;65.10;;;;;;5075258;28;20690;-64
2022/10/14 05:51:08;;;;;;;4.13;3.70;;;16.40;65.10;;;;;;5074473;28;20256;-63
2022/10/14 05:53:34;;;;;;;3.97;3.58;;;16.40;65.10;;;;;;5075404;28;20253;-64
2022/10/14 05:56:05;;;;;;;9.32;3.97;;;16.40;65.10;;;;;;5071563;28;20251;-63
2022/10/14 05:58:30;;;;;;;3.40;3.10;;;16.40;65.10;;;;;;5054808;28;20171;-63
2022/10/14 06:00:59;;;;;;;3.75;3.45;;;16.40;65.10;;;;;;5055483;28;20270;-64
2022/10/14 06:03:24;;;;;;;4.15;3.67;;;16.30;65.10;;;;;;5055622;28;20183;-63
2022/10/14 06:05:50;;;;;;;3.85;3.55;;;16.30;65.00;;;;;;5054739;28;20171;-63
2022/10/14 06:08:16;;;;;;;4.10;3.70;;;16.40;65.00;;;;;;5055181;28;20293;-63
2022/10/14 06:10:41;;;;;;;4.18;3.78;;;16.40;65.10;;;;;;5055060;28;20314;-63
2022/10/14 06:13:07;;;;;;;4.97;3.55;;;16.50;65.20;;;;;;5070160;28;20637;-63
2022/10/14 06:15:34;;;;;;;4.45;4.00;;;16.50;65.00;;;;;;5075171;28;20238;-63
2022/10/14 06:17:59;;;;;;;4.15;3.50;;;16.60;64.90;;;;;;5075041;28;20181;-63
2022/10/14 06:20:25;;;;;;;4.43;4.03;;;16.60;64.90;;;;;;5074630;28;20254;-63
2022/10/14 06:22:51;;;;;;;3.50;3.20;;;16.70;65.00;;;;;;5075241;28;20603;-63
2022/10/14 06:25:16;;;;;;;4.03;3.60;;;16.70;64.90;;;;;;5074836;28;20182;-63
2022/10/14 06:27:42;;;;;;;4.38;3.88;;;16.70;64.80;;;;;;5073440;28;20178;-63
2022/10/14 06:30:08;;;;;;;5.05;3.67;;;16.70;64.80;;;;;;5074718;28;20201;-63
2022/10/14 06:32:33;;;;;;;4.13;3.38;;;16.70;64.80;;;;;;5074076;28;20551;-62
2022/10/14 06:34:59;;;;;;;3.67;3.30;;;16.60;64.70;;;;;;5074498;28;20167;-63
2022/10/14 06:37:24;;;;;;;3.80;3.47;;;16.60;64.70;;;;;;5074719;28;20185;-63
2022/10/14 06:39:50;;;;;;;4.53;3.80;;;16.60;64.70;;;;;;5073957;28;20177;-63
2022/10/14 06:42:15;;;;;;;3.80;3.50;;;16.70;64.80;;;;;;5074608;28;20383;-64
2022/10/14 06:44:41;;;;;;;3.53;2.88;;;16.70;64.80;;;;;;5074917;28;20179;-64
2022/10/14 06:47:07;;;;;;;4.00;3.17;;;16.80;64.70;;;;;;5073790;28;20185;-64
2022/10/14 06:49:32;;;;;;;4.03;3.47;;;16.90;64.60;;;;;;5074566;28;20296;-64
2022/10/14 06:51:58;;;;;;;3.85;3.20;;;17.00;64.40;;;;;;5074312;28;20181;-64
2022/10/14 06:54:23;;;;;;;4.18;3.10;;;17.10;64.10;;;;;;5073949;28;20531;-64
2022/10/14 06:56:49;;;;;;;3.75;3.45;;;17.20;64.00;;;;;;5063939;28;20527;-64
2022/10/14 06:59:15;;;;;;;3.28;2.88;;;17.40;63.60;;;;;;5054357;28;20201;-65
2022/10/14 07:01:40;;;;;;;3.35;2.90;;;17.60;63.40;;;;;;5053900;28;20163;-63
2022/10/14 07:04:06;;;;;;;4.03;2.95;;;17.70;63.10;;;;;;5053920;28;20172;-63
2022/10/14 07:06:31;;;;;;;6.05;3.20;;;17.70;62.90;;;;;;5054525;28;20257;-65
2022/10/14 07:08:57;;;;;;;4.80;3.20;;;17.90;62.50;;;;;;5053162;28;20262;-65
2022/10/14 07:11:22;;;;;;;3.10;2.28;;;18.10;62.40;;;;;;5055117;28;20727;-65
2022/10/14 07:13:48;;;;;;;4.18;3.08;;;18.20;62.10;;;;;;5074386;28;20174;-65
2022/10/14 07:16:13;;;;;;;4.95;2.80;;;18.20;61.90;;;;;;5072927;28;20179;-64
2022/10/14 07:18:39;;;;;;;5.13;2.88;;;18.30;61.70;;;;;;5074035;28;20174;-64
2022/10/14 07:21:05;;;;;;;4.97;2.88;;;18.40;61.60;;;;;;5073641;28;20689;-65
2022/10/14 07:23:30;;;;;;;5.43;3.25;;;18.30;61.40;;;;;;5073204;28;20186;-64
2022/10/14 07:25:56;;;;;;;4.15;2.92;;;18.30;61.40;;;;;;5074089;28;20265;-62
2022/10/14 07:28:22;;;;;;;4.65;2.67;;;18.20;61.70;;;;;;5073936;28;20205;-62
2022/10/14 07:31:01;;;;;;;4.15;2.63;;;18.30;61.80;;;;;;5073226;28;20236;-62
2022/10/14 07:33:27;;;;;;;2.95;2.30;;;18.30;61.80;;;;;;5073950;28;20185;-62
2022/10/14 07:35:53;;;;;;;4.85;2.25;;;18.40;61.70;;;;;;5073210;28;20179;-62
2022/10/14 07:38:18;;;;;;;4.40;2.38;;;18.40;61.40;;;;;;5072949;28;20648;-62
2022/10/14 07:40:44;;;;;;;3.30;2.20;;;18.40;61.50;;;;;;5073791;28;20174;-63
2022/10/14 07:43:09;;;;;;;2.38;2.15;;;18.40;61.60;;;;;;5072760;28;20174;-63
2022/10/14 07:45:39;;;;;;;2.22;2.03;;;18.30;61.80;;;;;;5073790;28;20170;-63
2022/10/14 07:48:04;;;;;;;3.85;2.40;;;18.30;61.90;;;;;;5073167;28;20240;-62
2022/10/14 07:50:30;;;;;;;2.40;1.92;;;18.20;62.00;;;;;;5072572;28;20269;-63
2022/10/14 07:52:56;;;;;;;3.20;2.17;;;18.20;62.20;;;;;;5073479;28;20178;-62
2022/10/14 07:55:21;;;;;;;3.97;2.20;;;18.10;62.50;;;;;;5073061;28;20206;-62
2022/10/14 07:57:47;;;;;;;3.30;2.38;;;18.00;62.80;;;;;;5054142;28;20258;-63
2022/10/14 08:00:12;;;;;;;2.22;2.03;;;17.90;62.90;;;;;;5053147;28;20175;-62
2022/10/14 08:02:38;;;;;;;4.03;2.40;;;17.80;63.10;;;;;;5053436;28;20237;-62
2022/10/14 08:05:04;;;;;;;3.05;2.50;;;17.80;63.30;;;;;;5052452;28;20171;-62
2022/10/14 08:07:29;;;;;;;4.38;2.45;;;17.70;63.50;;;;;;5053305;28;20299;-62
2022/10/14 08:09:55;;;;;;;4.85;2.40;;;17.70;63.60;;;;;;5053015;28;20769;-62
2022/10/14 08:12:20;;;;;;;3.78;2.35;;;17.60;63.70;;;;;;5061549;28;20248;-62
2022/10/14 08:14:46;;;;;;;3.13;2.30;;;17.60;63.90;;;;;;5072915;28;20690;-62
2022/10/14 08:17:12;;;;;;;4.20;2.30;;;17.60;64.10;;;;;;5072820;28;20185;-62
2022/10/14 08:19:37;;;;;;;2.35;1.90;;;17.70;64.20;;;;;;5072526;28;20179;-61
2022/10/14 08:22:03;;;;;;;3.15;2.13;;;17.80;65.00;;;;;;5072500;28;20201;-65
2022/10/14 08:24:28;;;;;;;3.63;2.25;;;17.80;64.10;;;;;;5072857;28;20194;-65
2022/10/14 08:26:55;;;;;;;2.33;2.00;;;17.80;64.00;;;;;;5072099;28;20609;-64
2022/10/14 08:29:21;;;;;;;4.05;2.33;;;17.70;63.90;;;;;;5073027;28;20182;-64
2022/10/14 08:31:47;;;;;;;6.55;2.50;;;17.80;64.10;;;;;;5072886;28;20730;-64
2022/10/14 08:34:13;;;;;;;2.65;2.00;;;17.80;64.20;;;;;;5071905;28;20216;-68
2022/10/14 08:36:38;;;;;;;4.40;2.58;;;17.80;64.10;;;;;;5072971;28;20174;-67
2022/10/14 08:39:04;;;;;;;4.72;2.30;;;17.70;64.10;;;;;;5071991;28;20182;-64
2022/10/14 08:41:52;;;;;;;3.63;2.17;;;17.80;64.10;;;;;;5072904;28;20651;-65
2022/10/14 08:44:29;;;;;;;3.05;1.83;;;17.80;64.20;;;;;;5056647;28;20224;-65
2022/10/14 08:46:59;;;;;;;5.25;2.20;;;17.80;64.20;;;;;;5054415;28;20625;-66
2022/10/14 08:49:46;;;;;;;3.67;2.42;;;17.90;64.10;;;;;;5073132;28;20540;-67
2022/10/14 08:52:14;;;;;;;2.97;1.98;;;17.80;64.20;;;;;;5075263;28;20590;-65
2022/10/14 08:54:55;;;;;;;3.67;2.10;;;17.80;64.30;;;;;;5058511;28;20185;-66
2022/10/14 08:57:22;;;;;;;4.72;1.98;;;17.80;64.30;;;;;;5060115;28;20535;-67
2022/10/14 08:59:47;;;;;;;3.03;2.00;;;17.80;64.40;;;;;;5039177;28;20189;-66
2022/10/14 09:02:28;;;;;;;2.58;1.90;;;17.80;64.30;;;;;;5055649;28;20182;-66
2022/10/14 09:04:54;;;;;;;4.15;2.22;;;17.80;64.50;;;;;;5056527;28;20582;-65
2022/10/14 09:07:19;;;;;;;2.33;1.90;;;17.80;64.40;;;;;;5055620;28;20198;-65
2022/10/14 09:09:53;;;;;;;2.25;2.00;;;17.90;64.40;;;;;;5056171;28;20272;-66
2022/10/14 09:12:20;;;;;;;2.55;2.05;;;17.90;64.20;;;;;;5048299;28;20193;-66
2022/10/14 09:14:58;;;;;;;2.90;1.75;;;17.90;64.20;;;;;;5074711;28;20189;-66
2022/10/14 09:17:26;;;;;;;2.38;2.10;;;18.00;64.10;;;;;;5075158;28;20175;-66
2022/10/14 09:20:07;;;;;;;3.03;2.30;;;18.00;64.00;;;;;;5058794;28;20214;-66
2022/10/14 09:22:32;;;;;;;2.83;2.17;;;18.00;64.10;;;;;;5075681;28;20182;-67
2022/10/14 09:24:58;;;;;;;3.47;1.80;;;17.90;64.20;;;;;;5075880;28;20163;-66
2022/10/14 09:27:23;;;;;;;2.50;2.05;;;17.90;64.30;;;;;;5076296;28;20179;-66
2022/10/14 09:29:58;;;;;;;2.13;1.83;;;17.90;64.20;;;;;;5074123;28;20735;-65
2022/10/14 09:32:43;;;;;;;2.78;1.58;;;17.90;65.10;;;;;;5075212;28;20209;-65
2022/10/14 09:35:18;;;;;;;2.95;2.33;;;17.90;64.30;;;;;;5076000;28;20198;-64
2022/10/14 09:37:44;;;;;;;4.15;1.90;;;17.90;64.40;;;;;;5075925;28;20181;-65
2022/10/14 09:40:12;;;;;;;3.42;1.60;;;17.80;64.60;;;;;;5075817;28;20178;-65
2022/10/14 09:42:48;;;;;;;2.00;1.73;;;17.80;64.60;;;;;;5075158;28;20178;-65
2022/10/14 09:45:18;;;;;;;1.70;1.60;;;17.80;64.70;;;;;;5075703;28;20197;-65
2022/10/14 09:47:48;;;;;;;3.45;1.98;;;17.70;64.70;;;;;;5074942;28;20257;-66
2022/10/14 09:50:31;;;;;;;3.42;2.00;;;17.80;64.80;;;;;;5073653;28;20285;-66
2022/10/14 09:53:23;;;;;;;3.75;2.20;;;17.70;64.80;;;;;;5058720;28;20220;-65
2022/10/14 09:55:52;;;;;;;2.00;1.80;;;17.70;64.80;;;;;;5070135;28;20191;-67
2022/10/14 09:58:20;;;;;;;2.03;1.85;;;17.70;64.90;;;;;;5053656;28;20183;-66
2022/10/14 10:00:46;;;;;;;2.05;1.50;;;17.70;64.90;;;;;;5054340;28;20304;-66
2022/10/14 10:03:28;;;;;;;2.78;1.55;;;17.70;65.00;;;;;;5037755;28;20186;-66
2022/10/14 10:06:05;;;;;;;1.88;1.60;;;17.70;65.00;;;;;;5055434;28;20187;-65
2022/10/14 10:08:32;;;;;;;2.17;1.75;;;17.70;65.00;;;;;;5055607;28;20175;-66
2022/10/14 10:11:09;;;;;;;1.95;1.75;;;17.60;65.00;;;;;;5054049;28;20239;-66
2022/10/14 10:13:43;;;;;;;2.03;1.85;;;17.60;65.00;;;;;;5057165;28;20202;-66
2022/10/14 10:16:25;;;;;;;2.13;1.90;;;17.60;65.00;;;;;;5057334;28;20663;-65
2022/10/14 10:18:51;;;;;;;1.80;1.70;;;17.60;65.10;;;;;;5074455;28;20621;-66
2022/10/14 10:21:19;;;;;;;2.35;1.63;;;17.60;65.10;;;;;;5075069;28;20239;-65
2022/10/14 10:23:58;;;;;;;2.13;1.85;;;17.60;65.10;;;;;;5073784;28;20671;-66
2022/10/14 10:26:32;;;;;;;2.70;1.80;;;17.60;65.10;;;;;;5074399;28;20232;-66
2022/10/14 10:29:01;;;;;;;2.03;1.60;;;17.60;65.20;;;;;;5074816;28;20262;-65
2022/10/14 10:31:54;;;;;;;2.42;2.08;;;17.60;65.20;;;;;;5075106;28;20249;-69
2022/10/14 10:34:42;;;;;;;1.80;1.70;;;17.60;65.30;;;;;;5074631;28;20183;-68
2022/10/14 10:37:24;;;;;;;5.07;1.75;;;17.60;65.40;;;;;;5073555;28;20629;-66
2022/10/14 10:40:24;;;;;;;2.45;1.95;;;17.60;65.30;;;;;;5074496;28;20182;-66
2022/10/14 10:43:08;;;;;;;5.05;1.90;;;17.50;65.30;;;;;;5062760;28;20185;-65
2022/10/14 10:45:37;;;;;;;3.03;1.63;;;17.50;65.30;;;;;;5074629;28;20269;-65
2022/10/14 10:48:22;;;;;;;3.42;2.17;;;17.50;65.30;;;;;;5074099;28;20178;-65
2022/10/14 10:50:55;;;;;;;2.78;2.05;;;17.50;65.40;;;;;;5074475;28;20210;-65
2022/10/14 10:53:21;;;;;;;3.17;1.80;;;17.50;65.50;;;;;;5057003;28;20166;-65
2022/10/14 10:56:03;;;;;;;3.35;1.80;;;17.50;65.60;;;;;;5072388;28;20181;-65
2022/10/14 10:58:37;;;;;;;3.15;2.05;;;17.50;65.60;;;;;;5054093;28;20668;-65
2022/10/14 11:01:30;;;;;;;2.72;2.00;;;17.50;65.60;;;;;;5053469;28;20257;-63
2022/10/14 11:04:06;;;;;;;2.97;1.95;;;17.50;65.60;;;;;;5054617;28;20175;-64
2022/10/14 11:12:36;;;;;;;4.95;2.22;;;17.60;65.50;;;;;;5062960;28;20236;-66
2022/10/14 11:15:16;;;;;;;4.10;2.42;;;17.50;65.60;;;;;;5055867;28;20170;-65
2022/10/14 11:17:58;;;;;;;4.13;2.65;;;17.60;65.50;;;;;;5073082;28;20178;-65
2022/10/14 11:20:35;;;;;;;5.00;2.40;;;17.50;65.50;;;;;;5072873;28;20166;-65
2022/10/14 11:23:29;;;;;;;4.88;2.47;;;17.50;65.40;;;;;;5055894;28;20171;-65
2022/10/14 11:26:03;;;;;;;4.20;2.22;;;17.50;65.50;;;;;;5072451;28;20534;-65
2022/10/14 11:28:47;;;;;;;4.93;3.05;;;17.50;65.50;;;;;;5072261;28;20162;-66
2022/10/14 11:31:38;;;;;;;4.20;2.65;;;17.50;65.50;;;;;;5073460;28;20701;-66
2022/10/14 11:34:18;;;;;;;4.07;2.40;;;17.40;65.50;;;;;;5056207;28;20240;-65
2022/10/14 11:37:05;;;;;;;4.53;2.83;;;17.40;65.70;;;;;;5071726;28;20656;-65
2022/10/14 11:39:33;;;;;;;3.60;2.60;;;17.40;65.70;;;;;;5073842;28;20170;-65
2022/10/14 11:42:23;;;;;;;5.00;2.88;;;17.40;65.80;;;;;;5072719;28;20186;-67
2022/10/14 11:45:01;;;;;;;4.00;2.63;;;17.40;65.80;;;;;;5073595;28;20192;-68
2022/10/14 11:47:33;;;;;;;4.45;2.50;;;17.40;65.80;;;;;;5072346;28;20633;-67
2022/10/14 11:50:22;;;;;;;5.10;2.50;;;17.40;65.80;;;;;;5054959;28;20209;-67
2022/10/14 11:52:53;;;;;;;3.67;2.58;;;17.40;65.80;;;;;;5056412;28;20170;-66
2022/10/14 11:55:22;;;;;;;4.85;2.47;;;17.40;65.90;;;;;;5072062;28;20175;-66
2022/10/14 11:57:54;;;;;;;6.18;2.50;;;17.40;65.80;;;;;;5052630;28;20175;-67
2022/10/14 12:00:20;;;;;;;4.20;2.70;;;17.40;65.90;;;;;;5035629;28;20618;-65
2022/10/14 12:02:54;;;;;;;5.32;2.53;;;17.40;65.90;;;;;;5051929;28;20190;-66
2022/10/14 12:05:41;;;;;;;6.00;2.90;;;17.40;65.90;;;;;;5015360;28;20226;-66
2022/10/14 12:08:36;;;;;;;4.00;2.22;;;17.40;65.80;;;;;;5033002;28;20167;-68
2022/10/14 12:11:35;;;;;;;6.03;3.13;;;17.40;65.80;;;;;;5042784;28;20226;-66
2022/10/14 12:14:08;;;;;;;3.78;2.60;;;17.40;65.80;;;;;;5055010;28;20224;-66
2022/10/14 12:16:34;;;;;;;3.38;2.60;;;17.40;65.90;;;;;;5032046;28;20176;-65
2022/10/14 12:18:59;;;;;;;4.53;2.58;;;17.30;65.90;;;;;;5040800;28;20170;-65
2022/10/14 12:21:55;;;;;;;3.53;2.58;;;17.30;65.90;;;;;;5071774;28;20641;-65
2022/10/14 12:24:23;;;;;;;4.68;2.60;;;17.30;65.90;;;;;;5028274;28;20279;-66
2022/10/14 12:26:52;;;;;;;6.20;2.70;;;17.30;65.90;;;;;;5031941;28;20180;-65
2022/10/14 12:29:19;;;;;;;4.40;2.75;;;17.30;65.90;;;;;;5070811;28;20269;-65
2022/10/14 12:31:50;;;;;;;4.53;2.53;;;17.30;65.90;;;;;;5071048;28;20211;-65
2022/10/14 12:34:25;;;;;;;4.35;2.63;;;17.30;65.90;;;;;;5072424;28;20706;-65
2022/10/14 12:36:50;;;;;;;4.13;2.35;;;17.30;65.90;;;;;;5056355;28;20177;-65
2022/10/14 12:39:16;;;;;;;3.05;2.08;;;17.30;66.70;;;;;;5070627;28;20594;-65
2022/10/14 12:41:46;;;;;;;4.22;2.53;;;17.30;65.90;;;;;;5072796;28;20529;-65
2022/10/14 12:44:13;;;;;;;4.93;2.28;;;17.30;65.90;;;;;;5053406;28;20182;-66
2022/10/14 12:46:45;;;;;;;3.78;2.17;;;17.30;65.80;;;;;;5033638;28;20183;-66
2022/10/14 12:49:32;;;;;;;4.10;2.45;;;17.30;65.80;;;;;;5051340;28;20262;-65
2022/10/14 12:52:03;;;;;;;3.20;2.50;;;17.30;65.80;;;;;;5052382;28;20210;-65
2022/10/14 12:54:29;;;;;;;4.07;2.20;;;17.30;65.80;;;;;;5050804;28;20179;-65
2022/10/14 12:57:01;;;;;;;4.43;2.47;;;17.30;65.70;;;;;;5051387;28;20178;-65
2022/10/14 12:59:37;;;;;;;3.55;2.53;;;17.30;65.70;;;;;;5050896;28;20179;-65
2022/10/14 13:02:23;;;;;;;4.03;2.53;;;17.30;65.70;;;;;;5051452;28;20175;-65
2022/10/14 13:04:53;;;;;;;3.28;2.35;;;17.30;65.70;;;;;;5052402;28;20661;-64
2022/10/14 13:07:24;;;;;;;5.65;2.90;;;17.30;65.70;;;;;;5050426;28;20175;-64
2022/10/14 13:09:57;;;;;;;3.35;2.45;;;17.30;65.80;;;;;;5052418;28;20219;-65